Ithaca, Michigan
Current Conditions -  °F | °C
As of 10:32 AM on Saturday 25 Oct 2014 (Local Time) from KAMN Reporting Station
Haze Haze  
Wind Chill: 57°   Ceiling: 2200
Heat Index: 57°   Visibility: 5mi
Dew Point: 53°   Wind: 10mph
Humidity: 85%   Direction: 260°W
Pressure: 29.81"   Gusts: 18mph
Location:  43.29°N, 84.61°W
Report Text: KAMN 251432Z AUTO 26009G16KT 5SM BR SCT012 BKN022 14/12 A2981 RMK AO2 T01400115
Loading
Personal Weather Stations






























Interactive Weather Map
Tropical Storm Tracking
New forecast layout! Learn more

10-Day Weather Forecast

Advertisements
Track Severe Weather on mobile